Time;durP1;ratioP1;P1;durP2;ratioP2;P2;SDS_P1;SDS_P2;PMS_P1;PMS_P2;Temp;Humidity;BMP_temperature;BMP_pressure;BME280_temperature;BME280_humidity;BME280_pressure;Samples;Min_cycle;Max_cycle;Signal;HPM_P1;HPM_P2
2021/03/23 00:00:53;;;;;;;5.55;4.32;;;;;;;2.42;71.95;94041.00;4209034;28;20082;-72
2021/03/23 00:03:16;;;;;;;7.05;5.57;;;;;;;2.44;71.78;94046.88;4217832;28;20085;-71
2021/03/23 00:05:18;;;;;;;6.35;5.40;;;;;;;2.42;71.33;94043.59;4223691;28;20048;-71
2021/03/23 00:07:19;;;;;;;6.38;5.45;;;;;;;2.42;71.39;94041.81;4225713;28;20055;-71
2021/03/23 00:09:20;;;;;;;7.05;5.35;;;;;;;2.40;71.84;94045.47;4207882;28;20051;-72
2021/03/23 00:11:28;;;;;;;5.53;4.70;;;;;;;2.39;71.93;94036.91;4227511;28;20071;-73
2021/03/23 00:13:30;;;;;;;6.63;4.78;;;;;;;2.37;71.98;94038.81;4207959;28;20523;-71
2021/03/23 00:15:50;;;;;;;5.78;4.60;;;;;;;2.36;71.53;94047.50;4227204;28;20053;-72
2021/03/23 00:17:51;;;;;;;6.95;4.22;;;;;;;2.38;71.81;94050.78;4227966;28;20422;-71
2021/03/23 00:19:53;;;;;;;5.78;4.43;;;;;;;2.07;72.73;94047.28;4208534;28;20044;-71
2021/03/23 00:21:54;;;;;;;6.05;4.55;;;;;;;2.05;73.69;94049.19;4222397;28;20048;-69
2021/03/23 00:23:56;;;;;;;11.52;6.22;;;;;;;1.66;74.37;94056.56;4202360;28;20048;-71
2021/03/23 00:25:57;;;;;;;8.73;6.47;;;;;;;1.69;75.08;94056.31;4193929;28;20585;-72
2021/03/23 00:27:58;;;;;;;7.03;5.18;;;;;;;1.78;74.70;94057.34;4229361;28;20044;-71
2021/03/23 00:30:00;;;;;;;8.25;6.00;;;;;;;1.88;74.22;94058.28;4237940;27;20468;-72
2021/03/23 00:32:05;;;;;;;12.98;9.15;;;;;;;1.85;74.71;94053.34;4226663;27;20076;-71
2021/03/23 00:34:08;;;;;;;15.00;9.15;;;;;;;1.91;74.67;94058.00;4223319;28;20140;-69
2021/03/23 00:36:10;;;;;;;13.23;7.85;;;;;;;1.99;74.36;94065.16;4230391;28;20071;-70
2021/03/23 00:38:11;;;;;;;17.92;11.18;;;;;;;2.08;74.35;94063.59;4229853;28;20047;-72
2021/03/23 00:40:15;;;;;;;21.42;12.93;;;;;;;2.12;74.03;94065.00;4194462;28;20052;-71
2021/03/23 00:42:16;;;;;;;22.63;13.50;;;;;;;2.11;73.87;94065.94;4196487;28;20056;-72
2021/03/23 00:44:17;;;;;;;22.13;12.45;;;;;;;2.10;74.07;94065.13;4194173;28;20044;-70
2021/03/23 00:46:19;;;;;;;19.10;13.02;;;;;;;2.09;73.86;94070.41;4230179;28;20135;-71
2021/03/23 00:48:21;;;;;;;21.30;13.65;;;;;;;2.04;73.79;94071.59;4212568;28;20054;-73
2021/03/23 00:50:22;;;;;;;21.35;13.77;;;;;;;1.97;74.14;94073.03;4211411;28;20237;-71
2021/03/23 00:52:23;;;;;;;18.88;13.20;;;;;;;1.93;74.28;94066.47;4231641;28;20051;-83
2021/03/23 00:54:25;;;;;;;20.23;12.88;;;;;;;1.79;75.05;94075.31;4221906;28;20050;-84
2021/03/23 00:56:26;;;;;;;19.85;12.75;;;;;;;1.74;75.58;94076.59;4233777;28;20055;-84
2021/03/23 00:58:27;;;;;;;21.67;14.82;;;;;;;1.77;75.18;94074.63;4226044;28;20048;-83
2021/03/23 01:00:29;;;;;;;18.70;13.88;;;;;;;1.80;75.06;94076.94;4216046;28;20493;-83
2021/03/23 01:02:30;;;;;;;21.33;15.75;;;;;;;1.88;74.97;94073.75;4237072;28;20057;-83
2021/03/23 01:04:32;;;;;;;21.85;15.48;;;;;;;1.91;75.23;94077.84;4242783;28;20043;-82
2021/03/23 01:06:44;;;;;;;21.02;14.82;;;;;;;1.90;74.65;94077.06;4225754;28;20134;-84
2021/03/23 01:08:45;;;;;;;21.38;15.98;;;;;;;1.42;76.09;94082.56;4238491;28;20051;-83
2021/03/23 01:10:46;;;;;;;28.20;19.38;;;;;;;1.07;77.68;94080.91;4212977;28;20474;-69
2021/03/23 01:12:47;;;;;;;26.50;19.10;;;;;;;0.90;79.68;94082.16;4232598;28;20549;-85
2021/03/23 01:14:49;;;;;;;23.95;18.75;;;;;;;0.86;80.03;94083.38;4236414;28;20417;-81
2021/03/23 01:16:50;;;;;;;26.42;19.85;;;;;;;0.71;80.21;94087.91;4235965;28;20772;-82
2021/03/23 01:18:51;;;;;;;26.27;19.90;;;;;;;0.54;80.82;94089.16;4215811;28;20044;-85
2021/03/23 01:20:53;;;;;;;28.17;21.13;;;;;;;0.15;82.60;94087.72;4233649;28;20483;-82
2021/03/23 01:22:54;;;;;;;32.25;22.55;;;;;;;0.06;83.14;94085.84;4213313;28;20044;-84
2021/03/23 01:24:55;;;;;;;34.65;24.08;;;;;;;0.05;83.68;94085.00;4232255;28;20063;-83
2021/03/23 01:26:57;;;;;;;38.08;25.95;;;;;;;0.02;83.33;94081.81;4234553;28;20050;-82
2021/03/23 01:28:58;;;;;;;43.78;28.65;;;;;;;-0.06;84.13;94078.06;4231519;28;20090;-83
2021/03/23 01:30:59;;;;;;;43.33;28.45;;;;;;;0.04;84.68;94082.53;4233346;28;20459;-83
2021/03/23 01:33:01;;;;;;;46.95;28.65;;;;;;;0.19;84.19;94078.84;4235181;28;20076;-84
2021/03/23 01:35:03;;;;;;;42.47;27.92;;;;;;;0.29;83.29;94073.88;4214445;28;20056;-83
2021/03/23 01:37:04;;;;;;;43.85;28.73;;;;;;;0.48;82.88;94071.56;4215491;28;20056;-83
2021/03/23 01:39:06;;;;;;;42.15;27.23;;;;;;;0.59;81.93;94066.44;4232567;28;20051;-84
2021/03/23 01:41:07;;;;;;;38.33;26.38;;;;;;;0.61;81.76;94061.16;4228651;28;20050;-84
2021/03/23 01:43:20;;;;;;;43.10;28.42;;;;;;;0.60;81.34;94078.41;4224201;28;20555;-81
2021/03/23 01:45:23;;;;;;;37.53;26.33;;;;;;;0.63;81.39;94069.63;4217232;28;20048;-81
2021/03/23 01:47:24;;;;;;;41.92;27.48;;;;;;;0.57;81.51;94081.19;4243463;28;20111;-82
2021/03/23 01:49:34;;;;;;;40.65;26.50;;;;;;;0.73;81.32;94075.72;4228058;28;20117;-82
2021/03/23 01:51:36;;;;;;;40.20;25.40;;;;;;;0.89;81.33;94080.53;4227152;28;20091;-84
2021/03/23 01:53:40;;;;;;;35.50;24.10;;;;;;;1.04;80.22;94078.56;4216705;28;20047;-84
2021/03/23 01:55:41;;;;;;;39.47;26.20;;;;;;;1.17;79.84;94083.59;4222217;27;20047;-84
2021/03/23 01:57:46;;;;;;;38.30;24.92;;;;;;;1.28;79.18;94088.75;4244558;27;20091;-83
2021/03/23 01:59:53;;;;;;;37.65;25.38;;;;;;;1.34;78.70;94084.91;4233725;28;20054;-84
2021/03/23 02:01:56;;;;;;;37.10;24.67;;;;;;;1.42;78.16;94082.56;4227347;28;20116;-83
2021/03/23 02:04:01;;;;;;;36.25;25.10;;;;;;;1.50;77.83;94075.00;4201913;28;20461;-71
2021/03/23 02:06:04;;;;;;;37.72;24.40;;;;;;;1.56;77.53;94076.31;4211850;28;20146;-72
2021/03/23 02:08:06;;;;;;;34.90;25.15;;;;;;;1.64;77.47;94076.53;4229422;28;20191;-70
2021/03/23 02:10:07;;;;;;;37.00;24.42;;;;;;;1.66;76.99;94078.97;4192464;28;20546;-70
2021/03/23 02:12:17;;;;;;;38.47;23.95;;;;;;;1.66;77.07;94072.06;4214995;28;20060;-70
2021/03/23 02:14:20;;;;;;;36.17;24.33;;;;;;;1.71;76.69;94079.44;4210459;28;20059;-70
2021/03/23 02:16:21;;;;;;;36.65;24.90;;;;;;;1.68;76.20;94077.09;4210166;28;20481;-71
2021/03/23 02:18:27;;;;;;;35.78;24.33;;;;;;;1.68;76.25;94079.66;4210704;28;20052;-71
2021/03/23 02:20:28;;;;;;;35.22;24.10;;;;;;;1.68;76.40;94079.66;4210385;28;20060;-69
2021/03/23 02:22:41;;;;;;;38.08;24.92;;;;;;;1.62;76.25;94078.41;4238721;27;20047;-72
2021/03/23 02:24:42;;;;;;;33.83;23.15;;;;;;;1.60;76.73;94077.72;4224507;28;20052;-70
2021/03/23 02:26:44;;;;;;;33.15;22.77;;;;;;;1.38;76.83;94086.31;4221430;28;20487;-71
2021/03/23 02:28:52;;;;;;;34.40;23.88;;;;;;;1.40;77.33;94085.25;4221965;28;20051;-70
2021/03/23 02:30:54;;;;;;;34.15;24.15;;;;;;;1.48;77.38;94086.41;4222277;28;20055;-70
2021/03/23 02:32:55;;;;;;;33.70;24.15;;;;;;;1.45;76.52;94091.81;4204921;28;20048;-71
2021/03/23 02:35:04;;;;;;;36.25;24.25;;;;;;;0.89;78.52;94090.03;4229129;28;20050;-71
2021/03/23 02:37:05;;;;;;;40.83;26.83;;;;;;;0.61;79.75;94099.84;4227727;28;20059;-70
2021/03/23 02:39:08;;;;;;;38.92;26.05;;;;;;;0.50;80.63;94099.81;4227651;28;20075;-71
2021/03/23 02:41:09;;;;;;;45.05;28.52;;;;;;;0.18;82.14;94095.25;4209187;28;20044;-70
2021/03/23 02:43:11;;;;;;;45.13;29.30;;;;;;;0.22;83.02;94101.81;4211249;28;20130;-72
2021/03/23 02:45:12;;;;;;;48.15;29.98;;;;;;;-0.04;83.50;94101.13;4208884;28;20048;-71
2021/03/23 02:47:17;;;;;;;48.03;31.48;;;;;;;-0.28;84.24;94095.94;4228407;28;20061;-71
2021/03/23 02:49:19;;;;;;;48.42;30.83;;;;;;;-0.39;84.80;94107.00;4209509;28;20056;-70
2021/03/23 02:51:20;;;;;;;39.67;27.00;;;;;;;-0.36;85.26;94106.00;4209852;28;20480;-71
2021/03/23 02:53:22;;;;;;;38.55;25.20;;;;;;;-0.35;85.24;94098.16;4228598;28;20137;-70
2021/03/23 02:55:23;;;;;;;41.22;24.75;;;;;;;-0.27;84.99;94102.75;4190911;28;20048;-71
2021/03/23 02:57:25;;;;;;;39.17;24.42;;;;;;;-0.12;84.57;94104.25;4229044;28;20067;-71
2021/03/23 02:59:26;;;;;;;37.90;24.77;;;;;;;0.07;83.93;94100.38;4208353;28;20117;-71
2021/03/23 03:01:27;;;;;;;33.88;21.63;;;;;;;0.05;83.50;94097.06;4222057;28;20566;-69
2021/03/23 03:03:30;;;;;;;40.25;25.98;;;;;;;0.05;83.57;94099.66;4211085;28;20048;-71
2021/03/23 03:05:32;;;;;;;38.25;24.27;;;;;;;-0.26;84.46;94100.09;4226848;28;20155;-70
2021/03/23 03:07:33;;;;;;;30.13;18.77;;;;;;;-0.47;85.32;94104.97;4209357;28;20082;-71
2021/03/23 03:09:34;;;;;;;29.80;17.85;;;;;;;-0.47;85.14;94110.13;4227139;28;20047;-71
2021/03/23 03:11:35;;;;;;;27.98;17.77;;;;;;;-0.41;84.90;94108.88;4226991;28;20052;-72
2021/03/23 03:13:37;;;;;;;26.05;17.55;;;;;;;-0.33;84.79;94109.16;4209629;28;20040;-70
2021/03/23 03:15:38;;;;;;;29.10;19.10;;;;;;;-0.33;84.66;94111.72;4227292;28;20108;-71
2021/03/23 03:17:39;;;;;;;30.00;19.50;;;;;;;-0.39;84.21;94113.91;4228536;28;20044;-70
2021/03/23 03:19:41;;;;;;;31.35;21.52;;;;;;;-0.38;84.64;94113.00;4227237;28;20482;-71
2021/03/23 03:21:42;;;;;;;27.63;19.85;;;;;;;-0.38;83.53;94113.00;4228649;28;20052;-71
2021/03/23 03:23:43;;;;;;;35.25;23.40;;;;;;;-0.24;83.43;94115.41;4225992;28;20051;-71
2021/03/23 03:25:49;;;;;;;29.98;21.77;;;;;;;-0.04;83.62;94116.59;4207156;28;20044;-70
2021/03/23 03:27:50;;;;;;;33.00;21.02;;;;;;;-0.01;82.54;94117.16;4210477;28;20048;-71
2021/03/23 03:29:51;;;;;;;36.10;21.52;;;;;;;0.04;81.97;94119.41;4208774;28;20135;-72
2021/03/23 03:31:52;;;;;;;30.02;21.83;;;;;;;0.19;82.13;94117.50;4210316;28;20134;-71
2021/03/23 03:33:55;;;;;;;28.05;20.35;;;;;;;0.35;81.86;94123.19;4227148;28;20453;-71
2021/03/23 03:35:56;;;;;;;29.58;20.05;;;;;;;0.52;81.19;94119.38;4208623;28;20044;-71
2021/03/23 03:37:59;;;;;;;29.90;21.20;;;;;;;0.55;80.00;94123.47;4193373;28;20105;-70
2021/03/23 03:40:00;;;;;;;27.67;19.83;;;;;;;0.55;80.08;94123.47;4197748;28;20051;-71
2021/03/23 03:42:01;;;;;;;27.73;20.02;;;;;;;0.59;79.34;94127.47;4229186;28;20047;-71
2021/03/23 03:44:04;;;;;;;32.72;21.75;;;;;;;0.51;80.04;94133.19;4226355;28;20172;-69
2021/03/23 03:46:05;;;;;;;28.20;20.13;;;;;;;0.15;80.20;94128.94;4208664;28;20052;-72
2021/03/23 03:48:07;;;;;;;31.38;22.77;;;;;;;0.04;81.38;94127.13;4210000;28;20080;-71
2021/03/23 03:50:09;;;;;;;33.90;23.15;;;;;;;0.08;81.76;94135.47;4216143;28;20043;-70
2021/03/23 03:52:10;;;;;;;32.05;22.17;;;;;;;0.25;81.61;94129.94;4210295;28;20044;-71
2021/03/23 03:54:11;;;;;;;28.13;20.15;;;;;;;0.35;79.87;94130.09;4206812;28;20044;-69
2021/03/23 03:56:12;;;;;;;31.35;21.65;;;;;;;0.50;80.07;94131.56;4209787;28;20052;-70
2021/03/23 03:58:14;;;;;;;29.75;21.50;;;;;;;0.66;80.02;94127.84;4204045;28;20044;-71
2021/03/23 04:00:18;;;;;;;31.65;20.48;;;;;;;0.78;78.96;94135.50;4209518;28;20086;-71
2021/03/23 04:02:19;;;;;;;27.13;19.52;;;;;;;0.92;78.75;94131.88;4208851;28;20450;-71
2021/03/23 04:04:21;;;;;;;27.00;19.90;;;;;;;1.01;77.72;94130.38;4231280;28;20043;-70
2021/03/23 04:06:22;;;;;;;25.65;18.25;;;;;;;0.97;76.97;94131.56;4211664;28;20055;-70
2021/03/23 04:08:27;;;;;;;25.13;18.45;;;;;;;0.96;77.66;94130.72;4230214;28;20442;-70
2021/03/23 04:10:29;;;;;;;24.48;17.80;;;;;;;1.01;77.66;94138.94;4210423;28;20057;-70
2021/03/23 04:12:30;;;;;;;26.65;16.75;;;;;;;0.97;77.06;94139.28;4213254;28;20493;-71
2021/03/23 04:14:31;;;;;;;25.10;17.70;;;;;;;1.04;77.24;94134.50;4230604;28;20445;-71
2021/03/23 04:16:32;;;;;;;23.48;17.05;;;;;;;1.05;76.56;94134.34;4212886;28;20127;-70
2021/03/23 04:18:34;;;;;;;23.52;17.27;;;;;;;1.13;76.93;94134.59;4229954;28;20047;-70
2021/03/23 04:20:36;;;;;;;22.92;16.23;;;;;;;1.16;76.04;94139.56;4229969;28;20408;-72
2021/03/23 04:22:37;;;;;;;23.05;17.30;;;;;;;1.18;76.13;94136.84;4205338;28;20054;-71
2021/03/23 04:24:38;;;;;;;22.73;16.08;;;;;;;1.22;76.36;94139.06;4228897;28;20067;-86
2021/03/23 04:26:39;;;;;;;26.38;17.38;;;;;;;1.30;76.15;94141.06;4238044;27;20048;-84
2021/03/23 04:28:41;;;;;;;22.25;17.85;;;;;;;1.37;76.08;94152.56;4237562;27;20043;-84
2021/03/23 04:30:42;;;;;;;24.30;16.85;;;;;;;1.39;75.79;94145.53;4230740;28;20056;-85
2021/03/23 04:32:44;;;;;;;21.98;16.52;;;;;;;1.41;75.17;94148.00;4233525;28;20052;-86
2021/03/23 04:34:46;;;;;;;22.67;15.88;;;;;;;1.46;75.36;94158.78;4214994;28;20131;-83
2021/03/23 04:36:47;;;;;;;23.73;17.73;;;;;;;1.46;75.23;94150.22;4216007;28;20052;-84
2021/03/23 04:38:48;;;;;;;24.45;16.67;;;;;;;1.51;74.67;94163.63;4234267;28;20131;-85
2021/03/23 04:40:51;;;;;;;21.73;17.13;;;;;;;1.52;75.10;94154.91;4230130;28;20491;-84
2021/03/23 04:42:52;;;;;;;23.13;17.50;;;;;;;1.58;74.46;94163.00;4215848;28;20138;-85
2021/03/23 04:44:53;;;;;;;22.70;17.23;;;;;;;1.66;74.29;94166.75;4233878;28;20050;-84
2021/03/23 04:46:54;;;;;;;23.75;16.25;;;;;;;1.70;74.07;94173.31;4241674;27;20077;-86
2021/03/23 04:48:56;;;;;;;22.10;15.57;;;;;;;1.69;73.57;94175.09;4222670;28;20089;-71
2021/03/23 04:50:58;;;;;;;19.08;15.35;;;;;;;1.68;73.70;94175.22;4217470;28;20082;-72
2021/03/23 04:52:59;;;;;;;21.55;16.08;;;;;;;1.71;73.77;94178.38;4224399;28;20138;-72
2021/03/23 04:55:01;;;;;;;20.48;15.90;;;;;;;1.75;73.80;94179.78;4199003;28;20486;-72
2021/03/23 04:57:02;;;;;;;19.23;14.48;;;;;;;1.79;73.58;94172.63;4234359;27;20468;-70
2021/03/23 04:59:04;;;;;;;18.48;15.13;;;;;;;1.82;73.60;94177.56;4239166;27;20054;-71
2021/03/23 05:01:06;;;;;;;23.15;16.35;;;;;;;1.88;73.59;94174.50;4233026;27;20051;-71
2021/03/23 05:03:18;;;;;;;20.02;15.25;;;;;;;1.89;73.54;94170.97;4211408;28;20106;-71
2021/03/23 05:05:20;;;;;;;20.75;15.23;;;;;;;1.94;73.04;94168.84;4210459;28;20693;-71
2021/03/23 05:07:21;;;;;;;16.17;12.10;;;;;;;1.92;72.33;94167.34;4227345;28;20044;-72
2021/03/23 05:09:23;;;;;;;17.55;12.85;;;;;;;1.90;72.20;94171.81;4217103;28;20051;-73
2021/03/23 05:11:27;;;;;;;15.73;11.75;;;;;;;1.91;72.04;94182.00;4224558;28;20498;-72
2021/03/23 05:13:29;;;;;;;16.15;11.95;;;;;;;1.91;72.13;94178.59;4228366;28;20054;-72
2021/03/23 05:15:31;;;;;;;16.15;12.60;;;;;;;1.93;72.48;94177.53;4229400;28;20054;-71
2021/03/23 05:17:33;;;;;;;16.05;11.40;;;;;;;1.97;72.51;94175.53;4228907;28;20414;-71
2021/03/23 05:19:34;;;;;;;17.23;12.93;;;;;;;1.98;72.66;94182.34;4230164;28;20046;-71
2021/03/23 05:21:35;;;;;;;18.17;13.13;;;;;;;1.99;72.41;94179.63;4229595;28;20039;-71
2021/03/23 05:23:37;;;;;;;16.33;12.20;;;;;;;2.02;72.54;94178.56;4228529;28;20076;-71
2021/03/23 05:25:40;;;;;;;17.38;12.48;;;;;;;2.12;72.58;94184.66;4232559;27;20504;-71
2021/03/23 05:27:41;;;;;;;14.95;12.02;;;;;;;2.18;72.45;94173.84;4222100;28;20044;-71
2021/03/23 05:29:43;;;;;;;15.52;12.88;;;;;;;2.24;71.84;94177.72;4235754;28;20101;-85
2021/03/23 05:31:44;;;;;;;16.48;11.68;;;;;;;2.29;71.82;94177.38;4206218;28;20052;-85
2021/03/23 05:33:45;;;;;;;18.52;13.85;;;;;;;2.33;72.03;94182.16;4221860;27;20048;-82
2021/03/23 05:35:49;;;;;;;20.58;13.73;;;;;;;2.40;72.14;94180.72;4235470;28;20105;-83
2021/03/23 05:37:51;;;;;;;18.38;13.32;;;;;;;2.48;71.78;94181.91;4225170;28;20414;-84
2021/03/23 05:39:52;;;;;;;15.32;12.85;;;;;;;2.49;70.90;94184.34;4242479;27;20061;-86
2021/03/23 05:41:56;;;;;;;16.13;11.35;;;;;;;2.55;70.64;94183.84;4244436;27;20059;-85
2021/03/23 05:44:21;;;;;;;14.70;11.63;;;;;;;2.52;70.00;94185.84;4217942;28;20048;-84
2021/03/23 05:46:29;;;;;;;13.93;10.40;;;;;;;2.48;70.31;94184.47;4226858;28;20051;-85
2021/03/23 05:48:33;;;;;;;14.18;10.05;;;;;;;2.44;69.53;94189.06;4236221;28;20044;-84
2021/03/23 05:50:37;;;;;;;16.15;11.85;;;;;;;2.46;69.78;94187.19;4233231;28;20069;-84
2021/03/23 05:52:54;;;;;;;14.73;11.68;;;;;;;2.53;69.83;94190.91;4213466;28;20063;-72
2021/03/23 05:55:32;;;;;;;13.88;11.23;;;;;;;2.53;69.48;94206.41;4210426;28;20051;-72
2021/03/23 05:57:36;;;;;;;17.17;12.30;;;;;;;2.56;69.94;94210.53;4201997;28;20048;-71
2021/03/23 05:59:46;;;;;;;25.73;16.85;;;;;;;2.60;69.58;94210.19;4210245;28;20055;-72
2021/03/23 06:01:51;;;;;;;15.95;12.27;;;;;;;2.59;68.42;94203.34;4211698;28;20051;-72
2021/03/23 06:04:02;;;;;;;16.13;11.88;;;;;;;2.56;68.96;94211.38;4197424;28;20496;-71
2021/03/23 06:06:12;;;;;;;15.00;11.85;;;;;;;2.58;69.46;94222.41;4227240;28;20591;-72
2021/03/23 06:08:24;;;;;;;14.40;10.45;;;;;;;2.58;68.32;94214.66;4223105;28;20043;-71
2021/03/23 06:10:25;;;;;;;12.65;9.80;;;;;;;2.41;68.37;94218.56;4225349;28;20051;-71
2021/03/23 06:12:36;;;;;;;14.80;11.25;;;;;;;2.42;68.93;94216.81;4229717;28;20521;-72
2021/03/23 06:14:50;;;;;;;14.27;10.88;;;;;;;2.50;69.36;94213.63;4221632;28;20534;-72
2021/03/23 06:17:22;;;;;;;12.88;9.82;;;;;;;2.58;68.32;94224.16;4224874;28;20348;-72
2021/03/23 06:19:40;;;;;;;14.23;10.27;;;;;;;2.62;67.89;94231.56;4219334;28;20135;-71
2021/03/23 06:21:50;;;;;;;16.25;10.57;;;;;;;2.52;67.75;94229.81;4213533;28;20052;-72
2021/03/23 06:24:02;;;;;;;13.75;11.18;;;;;;;2.62;68.41;94226.41;4195089;28;20189;-72
2021/03/23 06:26:14;;;;;;;15.65;10.65;;;;;;;2.76;68.04;94230.44;4217429;28;20292;-72
2021/03/23 06:28:23;;;;;;;14.48;11.25;;;;;;;2.80;66.96;94229.25;4215574;28;20491;-72
2021/03/23 06:30:36;;;;;;;14.02;11.07;;;;;;;2.79;67.41;94227.59;4224864;28;20047;-73
2021/03/23 06:32:47;;;;;;;12.90;11.03;;;;;;;2.92;68.00;94235.19;4210235;28;20061;-72
2021/03/23 06:34:53;;;;;;;13.07;10.75;;;;;;;3.10;67.24;94239.81;4220187;28;20442;-71
2021/03/23 06:36:55;;;;;;;11.38;9.27;;;;;;;3.08;65.30;94242.56;4228639;28;20188;-72
2021/03/23 06:38:57;;;;;;;44.85;32.80;;;;;;;3.07;66.13;94241.72;4227474;28;20052;-70
2021/03/23 06:41:07;;;;;;;28.27;21.58;;;;;;;3.12;67.53;94238.78;4233263;28;20406;-85
2021/03/23 06:43:27;;;;;;;54.90;37.03;;;;;;;3.26;67.38;94237.63;4231728;28;20058;-85
2021/03/23 06:45:36;;;;;;;28.83;16.35;;;;;;;3.46;66.76;94243.75;4233060;28;20047;-85
2021/03/23 06:47:40;;;;;;;13.52;9.98;;;;;;;3.60;65.66;94248.63;4202756;28;20053;-85
2021/03/23 06:49:41;;;;;;;12.02;9.13;;;;;;;3.69;64.50;94245.25;4227984;28;20050;-86
2021/03/23 06:51:56;;;;;;;12.10;9.40;;;;;;;3.73;63.42;94247.59;4215487;28;20055;-86
2021/03/23 06:54:20;;;;;;;12.73;9.52;;;;;;;3.64;63.98;94247.41;4232325;28;20044;-84
2021/03/23 06:56:23;;;;;;;;;;;;;;;3.42;63.71;94258.72;4228531;28;20101;-85
2021/03/23 06:58:24;;;;;;;13.27;9.93;;;;;;;3.27;65.42;94255.63;4213759;28;19919;-89
2021/03/23 07:00:34;;;;;;;13.63;10.30;;;;;;;3.31;65.75;94250.19;4231887;28;20071;-84
2021/03/23 07:02:49;;;;;;;12.57;8.98;;;;;;;2.89;66.35;94255.34;4236216;27;20077;-85
2021/03/23 07:04:50;;;;;;;11.73;9.77;;;;;;;2.76;67.58;94256.31;4232810;28;20051;-85
2021/03/23 07:07:02;;;;;;;14.00;10.60;;;;;;;2.96;67.65;94259.06;4201062;28;20048;-82
2021/03/23 07:09:24;;;;;;;12.85;9.38;;;;;;;3.22;66.65;94264.72;4223222;27;20067;-86
2021/03/23 07:11:25;;;;;;;15.05;9.60;;;;;;;3.36;65.85;94264.41;4231481;28;20113;-74
2021/03/23 07:13:27;;;;;;;11.88;9.43;;;;;;;3.53;65.31;94267.38;4227483;28;20047;-71
2021/03/23 07:15:33;;;;;;;12.05;9.82;;;;;;;3.63;64.60;94266.47;4227531;28;20051;-70
2021/03/23 07:17:34;;;;;;;12.68;10.10;;;;;;;3.72;64.64;94272.66;4210389;28;20163;-72
2021/03/23 07:19:58;;;;;;;11.05;9.10;;;;;;;3.82;63.28;94264.94;4227351;28;20058;-71
2021/03/23 07:22:05;;;;;;;18.85;14.20;;;;;;;3.53;63.95;94275.97;4226124;28;20051;-72
2021/03/23 07:24:08;;;;;;;12.80;10.20;;;;;;;3.59;64.23;94272.88;4216227;28;20044;-71
2021/03/23 07:26:26;;;;;;;12.35;9.93;;;;;;;3.60;64.63;94277.09;4217695;28;20464;-72
2021/03/23 07:28:36;;;;;;;12.10;7.70;;;;;;;3.08;62.42;94281.38;4226854;28;20074;-73
2021/03/23 07:30:41;;;;;;;9.45;7.45;;;;;;;2.79;62.82;94281.94;4179685;28;20049;-73
2021/03/23 07:32:46;;;;;;;9.45;6.78;;;;;;;2.54;62.99;94283.06;4210245;28;20048;-73
2021/03/23 07:35:09;;;;;;;9.73;7.43;;;;;;;2.46;63.77;94286.25;4217560;28;20040;-71
2021/03/23 07:37:25;;;;;;;11.02;8.13;;;;;;;2.50;64.83;94292.00;4210670;28;20044;-74
2021/03/23 07:39:38;;;;;;;11.77;7.70;;;;;;;2.58;63.63;94291.38;4225306;28;20394;-73
2021/03/23 07:41:46;;;;;;;10.00;7.75;;;;;;;2.74;63.67;94291.81;4227637;28;20498;-73
2021/03/23 07:43:54;;;;;;;9.98;7.65;;;;;;;2.91;63.81;94292.25;4198366;28;20053;-71
2021/03/23 07:46:25;;;;;;;16.90;11.60;;;;;;;2.90;63.00;94300.94;4193228;28;20063;-72
2021/03/23 07:48:48;;;;;;;12.73;9.40;;;;;;;2.83;62.55;94288.50;4216760;28;20048;-88
2021/03/23 07:50:59;;;;;;;9.65;7.97;;;;;;;2.28;64.59;94299.75;4228709;28;20047;-85
2021/03/23 07:53:30;;;;;;;12.68;8.88;;;;;;;2.16;65.05;94292.03;4217223;28;20056;-88
2021/03/23 07:55:32;;;;;;;11.02;8.10;;;;;;;2.22;64.67;94298.50;4197098;28;20063;-85
2021/03/23 07:58:10;;;;;;;6.38;4.93;;;;;;;2.30;63.47;94298.69;4221577;28;20054;-85
2021/03/23 08:00:18;;;;;;;6.38;4.93;;;;;;;2.32;64.35;94296.00;4197824;28;20048;-86
2021/03/23 08:02:19;;;;;;;5.80;4.60;;;;;;;2.30;64.51;94305.63;4231207;28;20055;-74
2021/03/23 08:04:33;;;;;;;5.70;4.32;;;;;;;2.12;64.52;94300.94;4231050;28;20051;-73
2021/03/23 08:06:42;;;;;;;6.55;4.30;;;;;;;2.11;64.79;94307.06;4224232;28;20056;-73
2021/03/23 08:08:46;;;;;;;5.45;4.20;;;;;;;2.17;65.76;94303.19;4210676;28;20511;-72
2021/03/23 08:11:12;;;;;;;5.55;4.30;;;;;;;2.10;64.73;94304.59;4225821;28;20520;-72
2021/03/23 08:13:31;;;;;;;6.18;4.25;;;;;;;1.75;64.90;94313.25;4227995;28;20051;-71
2021/03/23 08:15:43;;;;;;;5.95;5.00;;;;;;;1.87;66.00;94314.09;4213641;28;20461;-73
2021/03/23 08:18:07;;;;;;;6.10;4.72;;;;;;;1.97;65.35;94305.53;4226571;28;20134;-73
2021/03/23 08:20:52;;;;;;;5.90;5.05;;;;;;;1.30;66.60;94313.16;4207643;28;20048;-73
2021/03/23 08:23:19;;;;;;;7.40;5.53;;;;;;;1.47;67.54;94312.75;4202490;28;20422;-72
2021/03/23 08:25:22;;;;;;;7.93;5.25;;;;;;;1.27;67.52;94313.38;4206106;28;20052;-74
2021/03/23 08:27:58;;;;;;;8.88;5.28;;;;;;;1.39;68.11;94318.44;4226562;28;20044;-71
2021/03/23 08:30:24;;;;;;;6.60;4.85;;;;;;;1.27;67.96;94324.53;4209751;28;20044;-72
2021/03/23 08:32:48;;;;;;;9.07;5.47;;;;;;;1.17;68.16;94326.94;4226617;28;20120;-72
2021/03/23 08:34:53;;;;;;;;;;;;;;;1.31;67.76;94327.69;4209519;28;20040;-72
2021/03/23 08:37:13;;;;;;;6.10;4.45;;;;;;;1.18;67.65;94323.44;4227706;28;19919;-73
2021/03/23 08:39:36;;;;;;;7.50;5.07;;;;;;;1.06;68.88;94323.50;4224959;28;20086;-71
2021/03/23 08:41:58;;;;;;;7.97;5.15;;;;;;;1.16;68.53;94319.31;4198427;28;20044;-72
2021/03/23 08:43:59;;;;;;;6.53;5.00;;;;;;;1.43;67.43;94319.06;4214653;28;20497;-75
2021/03/23 08:46:07;;;;;;;7.47;5.30;;;;;;;1.22;67.18;94322.25;4209118;28;20056;-72
2021/03/23 08:48:37;;;;;;;7.90;5.50;;;;;;;1.46;67.05;94315.41;4212875;28;20449;-71
2021/03/23 08:50:44;;;;;;;5.65;4.45;;;;;;;1.66;65.88;94313.94;4212159;28;20044;-72
2021/03/23 08:52:48;;;;;;;7.18;4.93;;;;;;;1.49;66.71;94316.03;4212478;28;20052;-72
2021/03/23 08:54:50;;;;;;;7.28;5.38;;;;;;;1.73;65.03;94313.38;4197973;28;20051;-72
2021/03/23 08:56:53;;;;;;;7.53;4.35;;;;;;;1.72;65.23;94314.31;4225151;28;20516;-72
2021/03/23 08:58:55;;;;;;;13.57;6.28;;;;;;;1.81;65.04;94316.22;4218303;27;20091;-73
2021/03/23 09:01:01;;;;;;;6.13;4.63;;;;;;;1.94;65.05;94318.69;4220951;27;21051;-73
2021/03/23 09:03:11;;;;;;;8.85;4.95;;;;;;;1.71;65.03;94320.41;4212216;28;20435;-73
2021/03/23 09:05:26;;;;;;;6.43;4.25;;;;;;;1.96;64.05;94319.41;4240907;27;20043;-73
2021/03/23 09:07:30;;;;;;;;;;;;;;;2.20;63.18;94319.28;4200347;28;20109;-72
2021/03/23 09:10:01;;;;;;;7.15;5.20;;;;;;;2.20;63.63;94319.28;4211209;28;20002;-73
2021/03/23 09:12:05;;;;;;;5.75;4.32;;;;;;;2.38;62.20;94309.28;4213782;28;20123;-71
2021/03/23 09:14:06;;;;;;;5.78;4.30;;;;;;;2.59;61.21;94313.72;4210869;28;20056;-71
2021/03/23 09:16:11;;;;;;;7.32;5.28;;;;;;;2.78;60.23;94308.75;4230216;28;20063;-72
2021/03/23 09:18:12;;;;;;;7.70;5.32;;;;;;;2.94;59.62;94310.94;4229659;28;20070;-71
2021/03/23 09:20:32;;;;;;;6.75;4.85;;;;;;;3.08;59.37;94307.25;4228169;28;20051;-72
2021/03/23 09:22:37;;;;;;;6.97;4.45;;;;;;;2.97;58.95;94309.84;4218061;28;20125;-73
2021/03/23 09:24:41;;;;;;;8.07;4.68;;;;;;;2.65;59.94;94310.66;4228393;28;20047;-72
2021/03/23 09:26:46;;;;;;;6.75;5.28;;;;;;;2.45;60.96;94304.44;4229030;28;20101;-72
2021/03/23 09:28:51;;;;;;;7.57;5.53;;;;;;;2.64;60.77;94315.00;4210754;28;20163;-72
2021/03/23 09:30:53;;;;;;;6.75;5.28;;;;;;;2.70;60.20;94308.53;4229669;28;20058;-72
2021/03/23 09:33:15;;;;;;;6.70;5.30;;;;;;;2.83;59.26;94308.38;4218274;28;20047;-73
2021/03/23 09:35:20;;;;;;;6.65;5.15;;;;;;;2.56;59.87;94316.53;4229496;28;20148;-72
2021/03/23 09:37:46;;;;;;;9.10;6.25;;;;;;;2.53;60.03;94317.59;4227740;28;20502;-72
2021/03/23 09:39:47;;;;;;;6.88;5.43;;;;;;;2.56;60.42;94321.72;4226887;27;20051;-72
2021/03/23 09:41:53;;;;;;;7.43;6.13;;;;;;;2.34;59.31;94317.38;4218865;28;20083;-74
2021/03/23 09:44:00;;;;;;;7.70;5.40;;;;;;;2.46;59.32;94314.69;4240658;27;20506;-73
2021/03/23 09:46:08;;;;;;;7.68;5.55;;;;;;;2.13;58.08;94323.28;4231096;27;20048;-72
2021/03/23 09:48:09;;;;;;;8.18;5.53;;;;;;;1.90;59.54;94319.84;4208484;28;20055;-73
2021/03/23 09:50:33;;;;;;;9.85;5.97;;;;;;;1.87;60.69;94324.41;4217792;28;20075;-75